sensor_id;sensor_type;location;lat;lon;timestamp;P1;durP1;ratioP1;P2;durP2;ratioP2
26946;SDS011;14501;52.282;10.560;2022-09-25T00:01:31;36.80;;;22.55;;
26946;SDS011;14501;52.282;10.560;2022-09-25T00:03:56;34.17;;;22.23;;
26946;SDS011;14501;52.282;10.560;2022-09-25T00:06:23;32.67;;;20.50;;
26946;SDS011;14501;52.282;10.560;2022-09-25T00:08:50;33.65;;;21.25;;
26946;SDS011;14501;52.282;10.560;2022-09-25T00:11:18;34.08;;;20.63;;
26946;SDS011;14501;52.282;10.560;2022-09-25T00:13:49;31.50;;;21.27;;
26946;SDS011;14501;52.282;10.560;2022-09-25T00:16:16;32.38;;;21.35;;
26946;SDS011;14501;52.282;10.560;2022-09-25T00:18:44;32.88;;;21.25;;
26946;SDS011;14501;52.282;10.560;2022-09-25T00:21:29;32.40;;;20.20;;
26946;SDS011;14501;52.282;10.560;2022-09-25T00:23:56;36.25;;;20.77;;
26946;SDS011;14501;52.282;10.560;2022-09-25T00:26:24;33.38;;;20.15;;
26946;SDS011;14501;52.282;10.560;2022-09-25T00:28:51;29.90;;;20.48;;
26946;SDS011;14501;52.282;10.560;2022-09-25T00:31:18;32.10;;;19.60;;
26946;SDS011;14501;52.282;10.560;2022-09-25T00:33:48;31.50;;;20.42;;
26946;SDS011;14501;52.282;10.560;2022-09-25T00:36:18;33.88;;;20.58;;
26946;SDS011;14501;52.282;10.560;2022-09-25T00:38:44;31.05;;;20.35;;
26946;SDS011;14501;52.282;10.560;2022-09-25T00:41:12;35.78;;;21.98;;
26946;SDS011;14501;52.282;10.560;2022-09-25T00:43:41;33.97;;;21.20;;
26946;SDS011;14501;52.282;10.560;2022-09-25T00:46:14;34.90;;;21.23;;
26946;SDS011;14501;52.282;10.560;2022-09-25T00:49:03;32.63;;;21.42;;
26946;SDS011;14501;52.282;10.560;2022-09-25T00:51:47;32.15;;;20.08;;
26946;SDS011;14501;52.282;10.560;2022-09-25T00:54:15;31.98;;;19.88;;
26946;SDS011;14501;52.282;10.560;2022-09-25T00:56:44;33.13;;;21.27;;
26946;SDS011;14501;52.282;10.560;2022-09-25T00:59:14;32.35;;;20.65;;
26946;SDS011;14501;52.282;10.560;2022-09-25T01:01:41;32.13;;;21.90;;
26946;SDS011;14501;52.282;10.560;2022-09-25T01:04:07;32.17;;;20.42;;
26946;SDS011;14501;52.282;10.560;2022-09-25T01:06:37;33.20;;;21.55;;
26946;SDS011;14501;52.282;10.560;2022-09-25T01:09:03;31.92;;;21.35;;
26946;SDS011;14501;52.282;10.560;2022-09-25T01:11:30;34.30;;;22.15;;
26946;SDS011;14501;52.282;10.560;2022-09-25T01:13:56;31.88;;;21.38;;
26946;SDS011;14501;52.282;10.560;2022-09-25T01:16:31;34.33;;;21.95;;
26946;SDS011;14501;52.282;10.560;2022-09-25T01:24:40;37.00;;;21.50;;
26946;SDS011;14501;52.282;10.560;2022-09-25T01:30:15;35.63;;;22.13;;
26946;SDS011;14501;52.282;10.560;2022-09-25T01:35:33;33.42;;;22.17;;
26946;SDS011;14501;52.282;10.560;2022-09-25T01:38:18;32.10;;;21.65;;
26946;SDS011;14501;52.282;10.560;2022-09-25T01:46:28;32.00;;;20.67;;
26946;SDS011;14501;52.282;10.560;2022-09-25T01:49:00;32.38;;;21.30;;
26946;SDS011;14501;52.282;10.560;2022-09-25T01:51:44;36.78;;;21.35;;
26946;SDS011;14501;52.282;10.560;2022-09-25T01:54:15;31.88;;;20.95;;
26946;SDS011;14501;52.282;10.560;2022-09-25T01:57:00;29.60;;;19.67;;
26946;SDS011;14501;52.282;10.560;2022-09-25T02:02:31;33.13;;;21.50;;
26946;SDS011;14501;52.282;10.560;2022-09-25T02:07:38;31.10;;;20.77;;
26946;SDS011;14501;52.282;10.560;2022-09-25T02:10:16;30.27;;;20.42;;
26946;SDS011;14501;52.282;10.560;2022-09-25T02:12:48;36.42;;;22.83;;
26946;SDS011;14501;52.282;10.560;2022-09-25T02:15:22;33.55;;;20.98;;
26946;SDS011;14501;52.282;10.560;2022-09-25T02:17:54;34.10;;;21.05;;
26946;SDS011;14501;52.282;10.560;2022-09-25T02:20:54;31.83;;;21.33;;
26946;SDS011;14501;52.282;10.560;2022-09-25T02:23:34;30.58;;;21.50;;
26946;SDS011;14501;52.282;10.560;2022-09-25T02:26:27;34.50;;;21.17;;
26946;SDS011;14501;52.282;10.560;2022-09-25T02:28:54;31.08;;;20.00;;
26946;SDS011;14501;52.282;10.560;2022-09-25T02:31:22;34.63;;;21.50;;
26946;SDS011;14501;52.282;10.560;2022-09-25T02:33:54;31.73;;;22.05;;
26946;SDS011;14501;52.282;10.560;2022-09-25T02:36:20;34.40;;;20.95;;
26946;SDS011;14501;52.282;10.560;2022-09-25T02:38:48;35.42;;;20.85;;
26946;SDS011;14501;52.282;10.560;2022-09-25T02:50:15;31.23;;;21.27;;
26946;SDS011;14501;52.282;10.560;2022-09-25T02:53:20;30.33;;;21.77;;
26946;SDS011;14501;52.282;10.560;2022-09-25T02:56:01;31.05;;;21.02;;
26946;SDS011;14501;52.282;10.560;2022-09-25T02:58:38;32.10;;;21.75;;
26946;SDS011;14501;52.282;10.560;2022-09-25T03:01:17;32.67;;;20.95;;
26946;SDS011;14501;52.282;10.560;2022-09-25T03:03:46;33.42;;;20.90;;
26946;SDS011;14501;52.282;10.560;2022-09-25T03:06:15;32.33;;;20.80;;
26946;SDS011;14501;52.282;10.560;2022-09-25T03:08:45;29.83;;;20.05;;
26946;SDS011;14501;52.282;10.560;2022-09-25T03:11:16;31.45;;;21.52;;
26946;SDS011;14501;52.282;10.560;2022-09-25T03:13:44;34.38;;;21.98;;
26946;SDS011;14501;52.282;10.560;2022-09-25T03:18:44;32.47;;;22.40;;
26946;SDS011;14501;52.282;10.560;2022-09-25T03:21:11;32.20;;;22.02;;
26946;SDS011;14501;52.282;10.560;2022-09-25T03:23:38;29.88;;;20.27;;
26946;SDS011;14501;52.282;10.560;2022-09-25T03:26:04;33.15;;;21.55;;
26946;SDS011;14501;52.282;10.560;2022-09-25T03:28:31;31.33;;;20.65;;
26946;SDS011;14501;52.282;10.560;2022-09-25T03:31:00;30.75;;;21.63;;
26946;SDS011;14501;52.282;10.560;2022-09-25T03:33:29;33.78;;;21.35;;
26946;SDS011;14501;52.282;10.560;2022-09-25T03:36:21;33.83;;;22.17;;
26946;SDS011;14501;52.282;10.560;2022-09-25T03:38:48;29.80;;;21.08;;
26946;SDS011;14501;52.282;10.560;2022-09-25T03:41:18;33.88;;;22.52;;
26946;SDS011;14501;52.282;10.560;2022-09-25T03:43:46;31.50;;;20.80;;
26946;SDS011;14501;52.282;10.560;2022-09-25T03:46:15;33.28;;;22.85;;
26946;SDS011;14501;52.282;10.560;2022-09-25T03:48:42;38.20;;;23.70;;
26946;SDS011;14501;52.282;10.560;2022-09-25T03:51:08;34.28;;;22.15;;
26946;SDS011;14501;52.282;10.560;2022-09-25T03:53:35;30.23;;;21.75;;
26946;SDS011;14501;52.282;10.560;2022-09-25T03:56:02;33.00;;;22.02;;
26946;SDS011;14501;52.282;10.560;2022-09-25T03:58:30;33.53;;;21.25;;
26946;SDS011;14501;52.282;10.560;2022-09-25T04:00:56;33.03;;;21.27;;
26946;SDS011;14501;52.282;10.560;2022-09-25T04:03:25;30.15;;;21.23;;
26946;SDS011;14501;52.282;10.560;2022-09-25T04:05:52;29.48;;;20.17;;
26946;SDS011;14501;52.282;10.560;2022-09-25T04:08:20;29.02;;;19.27;;
26946;SDS011;14501;52.282;10.560;2022-09-25T04:10:47;24.80;;;17.60;;
26946;SDS011;14501;52.282;10.560;2022-09-25T04:13:13;24.65;;;17.40;;
26946;SDS011;14501;52.282;10.560;2022-09-25T04:15:39;26.35;;;18.00;;
26946;SDS011;14501;52.282;10.560;2022-09-25T04:18:06;30.00;;;17.60;;
26946;SDS011;14501;52.282;10.560;2022-09-25T04:20:33;26.45;;;17.88;;
26946;SDS011;14501;52.282;10.560;2022-09-25T04:22:59;28.42;;;17.80;;
26946;SDS011;14501;52.282;10.560;2022-09-25T04:25:25;26.10;;;17.90;;
26946;SDS011;14501;52.282;10.560;2022-09-25T04:27:51;27.38;;;17.02;;
26946;SDS011;14501;52.282;10.560;2022-09-25T04:30:19;27.55;;;16.67;;
26946;SDS011;14501;52.282;10.560;2022-09-25T04:32:45;24.75;;;16.00;;
26946;SDS011;14501;52.282;10.560;2022-09-25T04:35:29;23.25;;;16.33;;
26946;SDS011;14501;52.282;10.560;2022-09-25T04:37:56;27.77;;;17.30;;
26946;SDS011;14501;52.282;10.560;2022-09-25T04:40:22;24.95;;;15.95;;
26946;SDS011;14501;52.282;10.560;2022-09-25T04:42:47;28.10;;;16.50;;
26946;SDS011;14501;52.282;10.560;2022-09-25T04:45:18;30.17;;;18.10;;
26946;SDS011;14501;52.282;10.560;2022-09-25T04:47:44;26.98;;;17.00;;
26946;SDS011;14501;52.282;10.560;2022-09-25T04:50:09;31.45;;;18.35;;
26946;SDS011;14501;52.282;10.560;2022-09-25T04:52:35;26.85;;;17.02;;
26946;SDS011;14501;52.282;10.560;2022-09-25T04:55:01;40.22;;;19.63;;
26946;SDS011;14501;52.282;10.560;2022-09-25T04:57:27;36.05;;;19.63;;
26946;SDS011;14501;52.282;10.560;2022-09-25T04:59:53;32.22;;;19.35;;
26946;SDS011;14501;52.282;10.560;2022-09-25T05:02:18;42.03;;;21.10;;
26946;SDS011;14501;52.282;10.560;2022-09-25T05:04:44;44.25;;;20.90;;
26946;SDS011;14501;52.282;10.560;2022-09-25T05:07:10;48.17;;;22.42;;
26946;SDS011;14501;52.282;10.560;2022-09-25T05:09:35;46.45;;;22.55;;
26946;SDS011;14501;52.282;10.560;2022-09-25T05:12:01;52.05;;;24.65;;
26946;SDS011;14501;52.282;10.560;2022-09-25T05:14:27;51.17;;;24.63;;
26946;SDS011;14501;52.282;10.560;2022-09-25T05:16:54;47.92;;;24.20;;
26946;SDS011;14501;52.282;10.560;2022-09-25T05:19:21;51.88;;;25.23;;
26946;SDS011;14501;52.282;10.560;2022-09-25T05:21:46;64.00;;;26.45;;
26946;SDS011;14501;52.282;10.560;2022-09-25T05:24:12;57.88;;;26.95;;
26946;SDS011;14501;52.282;10.560;2022-09-25T05:26:37;59.05;;;26.98;;
26946;SDS011;14501;52.282;10.560;2022-09-25T05:29:04;60.22;;;28.05;;
26946;SDS011;14501;52.282;10.560;2022-09-25T05:31:31;62.10;;;28.70;;
26946;SDS011;14501;52.282;10.560;2022-09-25T05:33:56;59.60;;;27.95;;
26946;SDS011;14501;52.282;10.560;2022-09-25T05:36:22;61.20;;;26.65;;
26946;SDS011;14501;52.282;10.560;2022-09-25T05:38:48;61.28;;;28.23;;
26946;SDS011;14501;52.282;10.560;2022-09-25T05:41:14;66.63;;;30.38;;
26946;SDS011;14501;52.282;10.560;2022-09-25T05:43:40;65.22;;;28.15;;
26946;SDS011;14501;52.282;10.560;2022-09-25T05:46:07;69.70;;;29.30;;
26946;SDS011;14501;52.282;10.560;2022-09-25T05:48:34;65.13;;;30.35;;
26946;SDS011;14501;52.282;10.560;2022-09-25T05:51:00;65.10;;;29.80;;
26946;SDS011;14501;52.282;10.560;2022-09-25T05:53:25;72.65;;;31.02;;
26946;SDS011;14501;52.282;10.560;2022-09-25T05:55:58;65.75;;;30.65;;
26946;SDS011;14501;52.282;10.560;2022-09-25T05:58:26;75.82;;;32.03;;
26946;SDS011;14501;52.282;10.560;2022-09-25T06:00:53;73.38;;;30.35;;
26946;SDS011;14501;52.282;10.560;2022-09-25T06:03:19;73.47;;;31.23;;
26946;SDS011;14501;52.282;10.560;2022-09-25T06:05:45;77.00;;;34.17;;
26946;SDS011;14501;52.282;10.560;2022-09-25T06:08:11;73.97;;;32.13;;
26946;SDS011;14501;52.282;10.560;2022-09-25T06:10:38;78.25;;;33.53;;
26946;SDS011;14501;52.282;10.560;2022-09-25T06:13:04;80.13;;;33.95;;
26946;SDS011;14501;52.282;10.560;2022-09-25T06:15:34;77.55;;;33.88;;
26946;SDS011;14501;52.282;10.560;2022-09-25T06:18:04;72.53;;;33.58;;
26946;SDS011;14501;52.282;10.560;2022-09-25T06:20:31;75.50;;;32.75;;
26946;SDS011;14501;52.282;10.560;2022-09-25T06:22:57;72.68;;;32.30;;
26946;SDS011;14501;52.282;10.560;2022-09-25T06:25:25;79.03;;;34.38;;
26946;SDS011;14501;52.282;10.560;2022-09-25T06:27:56;78.38;;;32.83;;
26946;SDS011;14501;52.282;10.560;2022-09-25T06:30:28;76.28;;;32.20;;
26946;SDS011;14501;52.282;10.560;2022-09-25T06:33:16;77.15;;;32.47;;
26946;SDS011;14501;52.282;10.560;2022-09-25T06:35:42;76.53;;;32.83;;
26946;SDS011;14501;52.282;10.560;2022-09-25T06:38:09;79.18;;;32.17;;
26946;SDS011;14501;52.282;10.560;2022-09-25T06:40:36;77.13;;;34.28;;
26946;SDS011;14501;52.282;10.560;2022-09-25T06:43:05;77.32;;;33.20;;
26946;SDS011;14501;52.282;10.560;2022-09-25T06:45:34;71.63;;;33.75;;
26946;SDS011;14501;52.282;10.560;2022-09-25T06:53:14;62.33;;;30.23;;
26946;SDS011;14501;52.282;10.560;2022-09-25T06:55:40;58.28;;;29.40;;
26946;SDS011;14501;52.282;10.560;2022-09-25T06:58:09;49.15;;;25.83;;
26946;SDS011;14501;52.282;10.560;2022-09-25T07:00:36;49.25;;;23.75;;
26946;SDS011;14501;52.282;10.560;2022-09-25T07:03:02;41.88;;;21.58;;
26946;SDS011;14501;52.282;10.560;2022-09-25T07:05:46;37.92;;;22.58;;
26946;SDS011;14501;52.282;10.560;2022-09-25T07:08:12;39.38;;;20.15;;
26946;SDS011;14501;52.282;10.560;2022-09-25T07:10:47;33.88;;;20.15;;
26946;SDS011;14501;52.282;10.560;2022-09-25T07:13:15;32.83;;;18.38;;
26946;SDS011;14501;52.282;10.560;2022-09-25T07:15:58;31.95;;;18.17;;
26946;SDS011;14501;52.282;10.560;2022-09-25T07:18:25;28.30;;;16.95;;
26946;SDS011;14501;52.282;10.560;2022-09-25T07:20:53;26.13;;;17.25;;
26946;SDS011;14501;52.282;10.560;2022-09-25T07:23:24;28.58;;;17.10;;
26946;SDS011;14501;52.282;10.560;2022-09-25T07:25:50;27.13;;;16.92;;
26946;SDS011;14501;52.282;10.560;2022-09-25T07:28:16;28.30;;;16.42;;
26946;SDS011;14501;52.282;10.560;2022-09-25T07:30:43;27.52;;;17.10;;
26946;SDS011;14501;52.282;10.560;2022-09-25T07:33:10;28.25;;;16.77;;
26946;SDS011;14501;52.282;10.560;2022-09-25T07:35:36;27.30;;;15.75;;
26946;SDS011;14501;52.282;10.560;2022-09-25T07:38:02;29.23;;;15.65;;
26946;SDS011;14501;52.282;10.560;2022-09-25T07:40:28;22.90;;;14.80;;
26946;SDS011;14501;52.282;10.560;2022-09-25T07:42:58;26.70;;;15.23;;
26946;SDS011;14501;52.282;10.560;2022-09-25T07:45:31;27.75;;;15.68;;
26946;SDS011;14501;52.282;10.560;2022-09-25T07:48:00;30.77;;;16.70;;
26946;SDS011;14501;52.282;10.560;2022-09-25T07:50:27;24.50;;;15.57;;
26946;SDS011;14501;52.282;10.560;2022-09-25T07:52:53;23.80;;;15.45;;
26946;SDS011;14501;52.282;10.560;2022-09-25T07:55:19;22.85;;;15.20;;
26946;SDS011;14501;52.282;10.560;2022-09-25T07:57:45;28.55;;;14.93;;
26946;SDS011;14501;52.282;10.560;2022-09-25T08:00:13;21.63;;;14.45;;
26946;SDS011;14501;52.282;10.560;2022-09-25T08:02:38;21.90;;;14.45;;
26946;SDS011;14501;52.282;10.560;2022-09-25T08:05:04;22.52;;;14.32;;
26946;SDS011;14501;52.282;10.560;2022-09-25T08:07:30;22.85;;;15.40;;
26946;SDS011;14501;52.282;10.560;2022-09-25T08:09:56;20.35;;;13.68;;
26946;SDS011;14501;52.282;10.560;2022-09-25T08:12:22;18.92;;;13.45;;
26946;SDS011;14501;52.282;10.560;2022-09-25T08:14:49;21.73;;;13.52;;
26946;SDS011;14501;52.282;10.560;2022-09-25T08:17:18;20.02;;;12.18;;
26946;SDS011;14501;52.282;10.560;2022-09-25T08:19:46;19.20;;;13.40;;
26946;SDS011;14501;52.282;10.560;2022-09-25T08:22:12;16.80;;;12.05;;
26946;SDS011;14501;52.282;10.560;2022-09-25T08:24:38;20.08;;;11.20;;
26946;SDS011;14501;52.282;10.560;2022-09-25T08:27:03;17.50;;;11.32;;
26946;SDS011;14501;52.282;10.560;2022-09-25T08:29:29;14.27;;;9.43;;
26946;SDS011;14501;52.282;10.560;2022-09-25T08:31:55;12.35;;;9.60;;
26946;SDS011;14501;52.282;10.560;2022-09-25T08:34:21;13.95;;;9.43;;
26946;SDS011;14501;52.282;10.560;2022-09-25T08:36:47;17.95;;;9.77;;
26946;SDS011;14501;52.282;10.560;2022-09-25T08:39:16;14.90;;;8.95;;
26946;SDS011;14501;52.282;10.560;2022-09-25T08:46:46;13.80;;;9.63;;
26946;SDS011;14501;52.282;10.560;2022-09-25T08:49:44;12.38;;;8.27;;
26946;SDS011;14501;52.282;10.560;2022-09-25T08:52:29;14.25;;;9.02;;
26946;SDS011;14501;52.282;10.560;2022-09-25T08:54:55;16.35;;;9.20;;
26946;SDS011;14501;52.282;10.560;2022-09-25T09:00:02;16.88;;;10.02;;
26946;SDS011;14501;52.282;10.560;2022-09-25T09:02:41;15.90;;;9.45;;
26946;SDS011;14501;52.282;10.560;2022-09-25T09:05:21;22.13;;;10.88;;
26946;SDS011;14501;52.282;10.560;2022-09-25T09:07:53;17.40;;;11.10;;
26946;SDS011;14501;52.282;10.560;2022-09-25T09:15:53;16.35;;;10.85;;
26946;SDS011;14501;52.282;10.560;2022-09-25T09:18:24;15.80;;;10.77;;
26946;SDS011;14501;52.282;10.560;2022-09-25T09:20:52;17.88;;;10.82;;
26946;SDS011;14501;52.282;10.560;2022-09-25T09:23:51;16.50;;;10.85;;
26946;SDS011;14501;52.282;10.560;2022-09-25T09:43:31;14.60;;;10.57;;
26946;SDS011;14501;52.282;10.560;2022-09-25T09:52:11;16.13;;;10.50;;
26946;SDS011;14501;52.282;10.560;2022-09-25T09:54:52;20.38;;;9.77;;
26946;SDS011;14501;52.282;10.560;2022-09-25T10:00:33;20.42;;;10.00;;
26946;SDS011;14501;52.282;10.560;2022-09-25T10:02:42;19.80;;;9.77;;
26946;SDS011;14501;52.282;10.560;2022-09-25T10:07:58;13.45;;;7.32;;
26946;SDS011;14501;52.282;10.560;2022-09-25T10:10:57;12.85;;;7.38;;
26946;SDS011;14501;52.282;10.560;2022-09-25T10:13:31;10.98;;;7.07;;
26946;SDS011;14501;52.282;10.560;2022-09-25T10:18:58;12.52;;;6.90;;
26946;SDS011;14501;52.282;10.560;2022-09-25T10:21:36;12.88;;;6.68;;
26946;SDS011;14501;52.282;10.560;2022-09-25T10:24:06;9.13;;;6.85;;
26946;SDS011;14501;52.282;10.560;2022-09-25T10:26:32;9.32;;;5.95;;
26946;SDS011;14501;52.282;10.560;2022-09-25T10:29:03;19.70;;;6.82;;
26946;SDS011;14501;52.282;10.560;2022-09-25T10:31:55;9.70;;;6.35;;
26946;SDS011;14501;52.282;10.560;2022-09-25T10:34:23;9.00;;;6.07;;
26946;SDS011;14501;52.282;10.560;2022-09-25T10:36:51;10.77;;;7.03;;
26946;SDS011;14501;52.282;10.560;2022-09-25T10:39:25;8.95;;;7.93;;
26946;SDS011;14501;52.282;10.560;2022-09-25T10:41:55;12.48;;;9.00;;
26946;SDS011;14501;52.282;10.560;2022-09-25T10:44:32;16.02;;;10.27;;
26946;SDS011;14501;52.282;10.560;2022-09-25T10:53:03;14.80;;;10.93;;
26946;SDS011;14501;52.282;10.560;2022-09-25T10:55:32;17.77;;;12.05;;
26946;SDS011;14501;52.282;10.560;2022-09-25T11:00:27;15.60;;;11.75;;
26946;SDS011;14501;52.282;10.560;2022-09-25T11:02:57;15.75;;;10.73;;
26946;SDS011;14501;52.282;10.560;2022-09-25T11:05:32;14.97;;;10.43;;
26946;SDS011;14501;52.282;10.560;2022-09-25T11:08:03;13.63;;;9.75;;
26946;SDS011;14501;52.282;10.560;2022-09-25T11:10:32;11.45;;;8.50;;
26946;SDS011;14501;52.282;10.560;2022-09-25T11:13:02;10.93;;;7.70;;
26946;SDS011;14501;52.282;10.560;2022-09-25T11:15:32;14.65;;;9.38;;
26946;SDS011;14501;52.282;10.560;2022-09-25T11:18:02;11.05;;;8.88;;
26946;SDS011;14501;52.282;10.560;2022-09-25T11:20:30;13.63;;;10.05;;
26946;SDS011;14501;52.282;10.560;2022-09-25T11:23:02;16.75;;;9.70;;
26946;SDS011;14501;52.282;10.560;2022-09-25T11:25:39;15.88;;;10.73;;
26946;SDS011;14501;52.282;10.560;2022-09-25T11:28:25;18.83;;;9.77;;
26946;SDS011;14501;52.282;10.560;2022-09-25T11:30:57;13.18;;;8.82;;
26946;SDS011;14501;52.282;10.560;2022-09-25T11:36:47;16.00;;;9.90;;
26946;SDS011;14501;52.282;10.560;2022-09-25T11:39:32;13.20;;;9.88;;
26946;SDS011;14501;52.282;10.560;2022-09-25T11:42:37;14.23;;;10.95;;
26946;SDS011;14501;52.282;10.560;2022-09-25T11:45:28;23.15;;;13.25;;
26946;SDS011;14501;52.282;10.560;2022-09-25T11:48:03;18.88;;;11.15;;
26946;SDS011;14501;52.282;10.560;2022-09-25T11:53:26;18.33;;;12.50;;
26946;SDS011;14501;52.282;10.560;2022-09-25T11:59:41;11.65;;;8.85;;
26946;SDS011;14501;52.282;10.560;2022-09-25T12:02:00;14.10;;;8.77;;
26946;SDS011;14501;52.282;10.560;2022-09-25T12:10:00;17.23;;;10.13;;
26946;SDS011;14501;52.282;10.560;2022-09-25T12:12:54;15.35;;;9.45;;
26946;SDS011;14501;52.282;10.560;2022-09-25T12:21:00;13.40;;;7.88;;
26946;SDS011;14501;52.282;10.560;2022-09-25T12:32:02;9.02;;;5.90;;
26946;SDS011;14501;52.282;10.560;2022-09-25T12:37:39;8.43;;;5.07;;
26946;SDS011;14501;52.282;10.560;2022-09-25T12:40:51;10.63;;;5.75;;
26946;SDS011;14501;52.282;10.560;2022-09-25T12:45:59;8.02;;;6.15;;
26946;SDS011;14501;52.282;10.560;2022-09-25T12:48:38;11.27;;;6.72;;
26946;SDS011;14501;52.282;10.560;2022-09-25T12:51:17;7.75;;;5.15;;
26946;SDS011;14501;52.282;10.560;2022-09-25T12:56:24;8.73;;;4.95;;
26946;SDS011;14501;52.282;10.560;2022-09-25T12:59:11;9.27;;;4.50;;
26946;SDS011;14501;52.282;10.560;2022-09-25T13:02:01;6.32;;;4.45;;
26946;SDS011;14501;52.282;10.560;2022-09-25T13:07:26;9.23;;;5.45;;
26946;SDS011;14501;52.282;10.560;2022-09-25T13:10:02;13.32;;;5.85;;
26946;SDS011;14501;52.282;10.560;2022-09-25T13:12:42;21.63;;;6.07;;
26946;SDS011;14501;52.282;10.560;2022-09-25T13:15:13;8.02;;;4.93;;
26946;SDS011;14501;52.282;10.560;2022-09-25T13:17:42;8.98;;;4.93;;
26946;SDS011;14501;52.282;10.560;2022-09-25T13:23:08;21.50;;;5.65;;
26946;SDS011;14501;52.282;10.560;2022-09-25T13:25:51;12.23;;;5.47;;
26946;SDS011;14501;52.282;10.560;2022-09-25T13:33:35;12.88;;;5.90;;
26946;SDS011;14501;52.282;10.560;2022-09-25T13:36:28;8.18;;;5.07;;
26946;SDS011;14501;52.282;10.560;2022-09-25T13:39:24;11.32;;;5.10;;
26946;SDS011;14501;52.282;10.560;2022-09-25T13:50:33;8.02;;;4.07;;
26946;SDS011;14501;52.282;10.560;2022-09-25T13:53:02;5.75;;;4.35;;
26946;SDS011;14501;52.282;10.560;2022-09-25T14:06:09;6.20;;;3.90;;
26946;SDS011;14501;52.282;10.560;2022-09-25T14:08:38;9.95;;;4.80;;
26946;SDS011;14501;52.282;10.560;2022-09-25T14:11:07;8.35;;;4.63;;
26946;SDS011;14501;52.282;10.560;2022-09-25T14:13:36;5.85;;;4.65;;
26946;SDS011;14501;52.282;10.560;2022-09-25T14:16:03;7.15;;;4.40;;
26946;SDS011;14501;52.282;10.560;2022-09-25T14:18:41;9.88;;;4.20;;
26946;SDS011;14501;52.282;10.560;2022-09-25T14:21:12;7.93;;;3.80;;
26946;SDS011;14501;52.282;10.560;2022-09-25T14:23:46;9.30;;;3.60;;
26946;SDS011;14501;52.282;10.560;2022-09-25T14:26:23;4.63;;;3.70;;
26946;SDS011;14501;52.282;10.560;2022-09-25T14:28:51;7.25;;;3.35;;
26946;SDS011;14501;52.282;10.560;2022-09-25T14:42:04;9.25;;;3.08;;
26946;SDS011;14501;52.282;10.560;2022-09-25T14:47:27;5.22;;;2.78;;
26946;SDS011;14501;52.282;10.560;2022-09-25T14:49:59;3.10;;;2.30;;
26946;SDS011;14501;52.282;10.560;2022-09-25T14:52:27;7.53;;;3.10;;
26946;SDS011;14501;52.282;10.560;2022-09-25T14:54:56;7.70;;;3.33;;
26946;SDS011;14501;52.282;10.560;2022-09-25T14:57:25;7.30;;;2.80;;
26946;SDS011;14501;52.282;10.560;2022-09-25T14:59:56;8.48;;;2.72;;
26946;SDS011;14501;52.282;10.560;2022-09-25T15:02:38;4.78;;;2.85;;
26946;SDS011;14501;52.282;10.560;2022-09-25T15:07:56;2.90;;;2.55;;
26946;SDS011;14501;52.282;10.560;2022-09-25T15:15:37;4.35;;;2.42;;
26946;SDS011;14501;52.282;10.560;2022-09-25T15:18:05;4.93;;;2.72;;
26946;SDS011;14501;52.282;10.560;2022-09-25T15:20:36;4.55;;;2.50;;
26946;SDS011;14501;52.282;10.560;2022-09-25T15:23:13;5.40;;;2.28;;
26946;SDS011;14501;52.282;10.560;2022-09-25T15:25:51;3.75;;;2.60;;
26946;SDS011;14501;52.282;10.560;2022-09-25T15:28:21;5.65;;;2.33;;
26946;SDS011;14501;52.282;10.560;2022-09-25T15:30:53;2.65;;;1.85;;
26946;SDS011;14501;52.282;10.560;2022-09-25T15:33:25;2.92;;;1.95;;
26946;SDS011;14501;52.282;10.560;2022-09-25T15:35:58;4.10;;;2.10;;
26946;SDS011;14501;52.282;10.560;2022-09-25T15:38:35;2.83;;;2.10;;
26946;SDS011;14501;52.282;10.560;2022-09-25T15:41:06;3.70;;;2.60;;
26946;SDS011;14501;52.282;10.560;2022-09-25T15:43:33;7.18;;;2.30;;
26946;SDS011;14501;52.282;10.560;2022-09-25T15:48:55;3.15;;;1.95;;
26946;SDS011;14501;52.282;10.560;2022-09-25T15:51:23;3.30;;;2.05;;
26946;SDS011;14501;52.282;10.560;2022-09-25T15:53:57;4.13;;;1.85;;
26946;SDS011;14501;52.282;10.560;2022-09-25T15:56:45;4.28;;;2.13;;
26946;SDS011;14501;52.282;10.560;2022-09-25T16:01:47;6.18;;;2.95;;
26946;SDS011;14501;52.282;10.560;2022-09-25T16:04:31;3.80;;;2.80;;
26946;SDS011;14501;52.282;10.560;2022-09-25T16:09:56;5.90;;;2.75;;
26946;SDS011;14501;52.282;10.560;2022-09-25T16:12:33;4.10;;;2.75;;
26946;SDS011;14501;52.282;10.560;2022-09-25T16:17:57;6.45;;;3.17;;
26946;SDS011;14501;52.282;10.560;2022-09-25T16:20:31;7.30;;;3.22;;
26946;SDS011;14501;52.282;10.560;2022-09-25T16:23:01;8.98;;;3.47;;
26946;SDS011;14501;52.282;10.560;2022-09-25T16:25:35;6.63;;;2.88;;
26946;SDS011;14501;52.282;10.560;2022-09-25T16:28:19;6.97;;;3.67;;
26946;SDS011;14501;52.282;10.560;2022-09-25T16:30:58;5.82;;;3.88;;
26946;SDS011;14501;52.282;10.560;2022-09-25T16:33:29;5.07;;;4.05;;
26946;SDS011;14501;52.282;10.560;2022-09-25T16:36:02;10.25;;;3.90;;
26946;SDS011;14501;52.282;10.560;2022-09-25T16:38:35;9.37;;;3.53;;
26946;SDS011;14501;52.282;10.560;2022-09-25T16:41:06;4.47;;;3.22;;
26946;SDS011;14501;52.282;10.560;2022-09-25T16:43:46;6.43;;;3.05;;
26946;SDS011;14501;52.282;10.560;2022-09-25T16:46:43;6.18;;;3.30;;
26946;SDS011;14501;52.282;10.560;2022-09-25T16:49:11;7.50;;;3.80;;
26946;SDS011;14501;52.282;10.560;2022-09-25T16:51:37;5.03;;;3.50;;
26946;SDS011;14501;52.282;10.560;2022-09-25T16:54:10;5.32;;;2.97;;
26946;SDS011;14501;52.282;10.560;2022-09-25T16:56:39;4.50;;;3.28;;
26946;SDS011;14501;52.282;10.560;2022-09-25T16:59:13;5.35;;;3.88;;
26946;SDS011;14501;52.282;10.560;2022-09-25T17:01:44;7.35;;;3.97;;
26946;SDS011;14501;52.282;10.560;2022-09-25T17:04:10;9.88;;;4.60;;
26946;SDS011;14501;52.282;10.560;2022-09-25T17:06:39;4.65;;;3.30;;
26946;SDS011;14501;52.282;10.560;2022-09-25T17:09:11;6.00;;;3.70;;
26946;SDS011;14501;52.282;10.560;2022-09-25T17:11:38;5.97;;;3.80;;
26946;SDS011;14501;52.282;10.560;2022-09-25T17:14:05;6.85;;;3.38;;
26946;SDS011;14501;52.282;10.560;2022-09-25T17:16:33;3.53;;;3.22;;
26946;SDS011;14501;52.282;10.560;2022-09-25T17:18:59;6.43;;;3.30;;
26946;SDS011;14501;52.282;10.560;2022-09-25T17:21:24;8.15;;;3.60;;
26946;SDS011;14501;52.282;10.560;2022-09-25T17:23:50;4.35;;;3.80;;
26946;SDS011;14501;52.282;10.560;2022-09-25T17:26:22;4.32;;;3.45;;
26946;SDS011;14501;52.282;10.560;2022-09-25T17:28:49;5.60;;;3.40;;
26946;SDS011;14501;52.282;10.560;2022-09-25T17:31:19;5.88;;;3.92;;
26946;SDS011;14501;52.282;10.560;2022-09-25T17:33:46;4.78;;;3.85;;
26946;SDS011;14501;52.282;10.560;2022-09-25T17:36:15;5.70;;;4.10;;
26946;SDS011;14501;52.282;10.560;2022-09-25T17:38:41;4.30;;;3.97;;
26946;SDS011;14501;52.282;10.560;2022-09-25T17:41:20;6.97;;;4.20;;
26946;SDS011;14501;52.282;10.560;2022-09-25T17:43:54;7.60;;;4.78;;
26946;SDS011;14501;52.282;10.560;2022-09-25T17:46:19;6.78;;;4.95;;
26946;SDS011;14501;52.282;10.560;2022-09-25T17:48:45;11.45;;;5.45;;
26946;SDS011;14501;52.282;10.560;2022-09-25T17:51:12;12.18;;;6.65;;
26946;SDS011;14501;52.282;10.560;2022-09-25T17:53:46;11.10;;;6.53;;